Archival Weather

Republic

Farmingdale, New York (KFRG)

Report from: Wednesday, February 14, 2024 1:53 AM EST
Current time: Friday, June 14, 2024 7:43 AM EDT

Current weather – Weather history – Daily summaries
Weather forecast

Temperature2.2°C (36.0°F)
Wind chill-2.5°C (27.5°F)
Dew point-4.4°C (24.1°F)
Winds 11 kts (5.7 m/s, 12.7 mph) West (280°)
Visibility10 mi. (16.1 km)
Clouds Sky clear
Altimeter29.82 in.Hg (1010 mB)
Relative humidity62 %
Density altitude-1,368 ft. (-417 m)
Sea-level pressure101.0 kPa (1010 mB, 29.82 in.Hg)
Remarks Fully automated report
Automated weather observing station without precipitation discriminator
Freezing rain sensor not operating
Flight conditions Visual Meteorological Conditions
Raw dataKFRG 140653Z AUTO 28011KT 10SM CLR 02/M04 A2982 RMK AO1 SLP098 T00221044 FZRANO
An error has occurred. This application may no longer respond until reloaded. Reload 🗙